sensor_id;sensor_type;location;lat;lon;timestamp;P1;durP1;ratioP1;P2;durP2;ratioP2
21060;SDS011;10689;50.836;3.266;2023-04-01T00:01:40;4.57;;;2.17;;
21060;SDS011;10689;50.836;3.266;2023-04-01T00:04:06;6.47;;;2.30;;
21060;SDS011;10689;50.836;3.266;2023-04-01T00:06:32;7.43;;;2.50;;
21060;SDS011;10689;50.836;3.266;2023-04-01T00:08:58;4.47;;;1.97;;
21060;SDS011;10689;50.836;3.266;2023-04-01T00:11:24;4.77;;;2.17;;
21060;SDS011;10689;50.836;3.266;2023-04-01T00:13:52;3.80;;;2.17;;
21060;SDS011;10689;50.836;3.266;2023-04-01T00:16:18;5.60;;;1.70;;
21060;SDS011;10689;50.836;3.266;2023-04-01T00:18:44;4.57;;;1.97;;
21060;SDS011;10689;50.836;3.266;2023-04-01T00:21:13;6.80;;;2.30;;
21060;SDS011;10689;50.836;3.266;2023-04-01T00:23:42;4.30;;;1.70;;
21060;SDS011;10689;50.836;3.266;2023-04-01T00:26:10;6.67;;;2.17;;
21060;SDS011;10689;50.836;3.266;2023-04-01T00:28:37;6.00;;;1.70;;
21060;SDS011;10689;50.836;3.266;2023-04-01T00:31:04;4.90;;;1.60;;
21060;SDS011;10689;50.836;3.266;2023-04-01T00:33:31;6.17;;;2.53;;
21060;SDS011;10689;50.836;3.266;2023-04-01T00:36:05;5.93;;;2.63;;
21060;SDS011;10689;50.836;3.266;2023-04-01T00:38:38;4.13;;;2.33;;
21060;SDS011;10689;50.836;3.266;2023-04-01T00:41:05;3.17;;;1.97;;
21060;SDS011;10689;50.836;3.266;2023-04-01T00:43:32;6.37;;;2.90;;
21060;SDS011;10689;50.836;3.266;2023-04-01T00:45:58;3.13;;;2.13;;
21060;SDS011;10689;50.836;3.266;2023-04-01T00:48:28;9.97;;;2.70;;
21060;SDS011;10689;50.836;3.266;2023-04-01T00:50:59;7.87;;;3.10;;
21060;SDS011;10689;50.836;3.266;2023-04-01T00:53:33;5.53;;;3.87;;
21060;SDS011;10689;50.836;3.266;2023-04-01T00:56:04;6.53;;;3.13;;
21060;SDS011;10689;50.836;3.266;2023-04-01T00:58:32;6.87;;;3.23;;
21060;SDS011;10689;50.836;3.266;2023-04-01T01:01:02;3.77;;;3.13;;
21060;SDS011;10689;50.836;3.266;2023-04-01T01:03:29;8.23;;;3.60;;
21060;SDS011;10689;50.836;3.266;2023-04-01T01:08:52;6.10;;;3.43;;
21060;SDS011;10689;50.836;3.266;2023-04-01T01:11:42;5.67;;;3.30;;
21060;SDS011;10689;50.836;3.266;2023-04-01T01:17:15;11.23;;;3.87;;
21060;SDS011;10689;50.836;3.266;2023-04-01T01:29:06;8.40;;;5.40;;
21060;SDS011;10689;50.836;3.266;2023-04-01T01:31:44;7.43;;;4.37;;
21060;SDS011;10689;50.836;3.266;2023-04-01T01:34:25;6.77;;;4.27;;
21060;SDS011;10689;50.836;3.266;2023-04-01T01:37:22;9.23;;;4.47;;
21060;SDS011;10689;50.836;3.266;2023-04-01T01:40:10;7.23;;;4.40;;
21060;SDS011;10689;50.836;3.266;2023-04-01T01:42:39;8.70;;;5.60;;
21060;SDS011;10689;50.836;3.266;2023-04-01T01:45:16;15.50;;;5.93;;
21060;SDS011;10689;50.836;3.266;2023-04-01T01:47:44;7.63;;;4.17;;
21060;SDS011;10689;50.836;3.266;2023-04-01T01:50:12;8.37;;;4.43;;
21060;SDS011;10689;50.836;3.266;2023-04-01T01:52:43;9.23;;;4.37;;
21060;SDS011;10689;50.836;3.266;2023-04-01T01:57:59;9.37;;;5.30;;
21060;SDS011;10689;50.836;3.266;2023-04-01T02:00:38;9.73;;;4.33;;
21060;SDS011;10689;50.836;3.266;2023-04-01T02:03:11;5.90;;;3.77;;
21060;SDS011;10689;50.836;3.266;2023-04-01T02:05:50;10.77;;;4.67;;
21060;SDS011;10689;50.836;3.266;2023-04-01T02:08:26;9.67;;;4.87;;
21060;SDS011;10689;50.836;3.266;2023-04-01T02:11:06;10.33;;;4.93;;
21060;SDS011;10689;50.836;3.266;2023-04-01T02:13:48;11.30;;;5.00;;
21060;SDS011;10689;50.836;3.266;2023-04-01T02:16:39;13.90;;;5.27;;
21060;SDS011;10689;50.836;3.266;2023-04-01T02:19:12;12.87;;;4.03;;
21060;SDS011;10689;50.836;3.266;2023-04-01T02:21:40;10.60;;;3.93;;
21060;SDS011;10689;50.836;3.266;2023-04-01T02:24:09;7.77;;;3.37;;
21060;SDS011;10689;50.836;3.266;2023-04-01T02:26:46;10.40;;;3.60;;
21060;SDS011;10689;50.836;3.266;2023-04-01T02:29:13;6.20;;;4.20;;
21060;SDS011;10689;50.836;3.266;2023-04-01T02:31:40;6.07;;;3.80;;
21060;SDS011;10689;50.836;3.266;2023-04-01T02:34:07;7.70;;;3.27;;
21060;SDS011;10689;50.836;3.266;2023-04-01T02:36:35;4.90;;;3.50;;
21060;SDS011;10689;50.836;3.266;2023-04-01T02:39:01;9.83;;;3.50;;
21060;SDS011;10689;50.836;3.266;2023-04-01T02:41:29;5.00;;;3.50;;
21060;SDS011;10689;50.836;3.266;2023-04-01T02:43:55;5.67;;;3.13;;
21060;SDS011;10689;50.836;3.266;2023-04-01T02:46:23;7.87;;;4.27;;
21060;SDS011;10689;50.836;3.266;2023-04-01T02:48:50;10.97;;;4.10;;
21060;SDS011;10689;50.836;3.266;2023-04-01T02:51:16;5.87;;;3.57;;
21060;SDS011;10689;50.836;3.266;2023-04-01T02:53:43;10.23;;;3.53;;
21060;SDS011;10689;50.836;3.266;2023-04-01T02:56:09;7.40;;;4.47;;
21060;SDS011;10689;50.836;3.266;2023-04-01T02:58:35;7.47;;;3.67;;
21060;SDS011;10689;50.836;3.266;2023-04-01T03:01:01;12.00;;;5.60;;
21060;SDS011;10689;50.836;3.266;2023-04-01T03:03:27;8.30;;;4.60;;
21060;SDS011;10689;50.836;3.266;2023-04-01T03:05:53;9.57;;;4.87;;
21060;SDS011;10689;50.836;3.266;2023-04-01T03:08:21;9.30;;;4.77;;
21060;SDS011;10689;50.836;3.266;2023-04-01T03:10:47;8.20;;;4.23;;
21060;SDS011;10689;50.836;3.266;2023-04-01T03:13:13;11.80;;;5.17;;
21060;SDS011;10689;50.836;3.266;2023-04-01T03:15:38;12.93;;;4.57;;
21060;SDS011;10689;50.836;3.266;2023-04-01T03:18:04;7.30;;;4.27;;
21060;SDS011;10689;50.836;3.266;2023-04-01T03:20:30;7.10;;;4.20;;
21060;SDS011;10689;50.836;3.266;2023-04-01T03:22:57;7.33;;;3.80;;
21060;SDS011;10689;50.836;3.266;2023-04-01T03:25:23;11.00;;;4.77;;
21060;SDS011;10689;50.836;3.266;2023-04-01T03:27:49;6.43;;;4.53;;
21060;SDS011;10689;50.836;3.266;2023-04-01T03:30:15;8.10;;;4.63;;
21060;SDS011;10689;50.836;3.266;2023-04-01T03:32:41;9.47;;;5.53;;
21060;SDS011;10689;50.836;3.266;2023-04-01T03:35:08;9.77;;;5.37;;
21060;SDS011;10689;50.836;3.266;2023-04-01T03:37:35;8.70;;;4.77;;
21060;SDS011;10689;50.836;3.266;2023-04-01T03:40:04;11.73;;;5.43;;
21060;SDS011;10689;50.836;3.266;2023-04-01T03:42:33;8.53;;;5.67;;
21060;SDS011;10689;50.836;3.266;2023-04-01T03:45:15;8.13;;;4.30;;
21060;SDS011;10689;50.836;3.266;2023-04-01T03:47:41;9.60;;;5.53;;
21060;SDS011;10689;50.836;3.266;2023-04-01T03:50:11;7.43;;;5.03;;
21060;SDS011;10689;50.836;3.266;2023-04-01T03:52:38;8.80;;;5.27;;
21060;SDS011;10689;50.836;3.266;2023-04-01T03:55:04;10.00;;;5.20;;
21060;SDS011;10689;50.836;3.266;2023-04-01T03:57:34;8.17;;;5.03;;
21060;SDS011;10689;50.836;3.266;2023-04-01T03:59:59;11.70;;;5.70;;
21060;SDS011;10689;50.836;3.266;2023-04-01T04:02:28;11.87;;;6.70;;
21060;SDS011;10689;50.836;3.266;2023-04-01T04:04:55;11.70;;;5.67;;
21060;SDS011;10689;50.836;3.266;2023-04-01T04:07:21;7.77;;;5.10;;
21060;SDS011;10689;50.836;3.266;2023-04-01T04:09:48;7.30;;;4.67;;
21060;SDS011;10689;50.836;3.266;2023-04-01T04:12:14;8.50;;;5.27;;
21060;SDS011;10689;50.836;3.266;2023-04-01T04:14:40;10.17;;;4.93;;
21060;SDS011;10689;50.836;3.266;2023-04-01T04:17:06;10.20;;;4.80;;
21060;SDS011;10689;50.836;3.266;2023-04-01T04:19:33;9.23;;;4.67;;
21060;SDS011;10689;50.836;3.266;2023-04-01T04:21:59;7.23;;;4.37;;
21060;SDS011;10689;50.836;3.266;2023-04-01T04:24:26;9.83;;;4.77;;
21060;SDS011;10689;50.836;3.266;2023-04-01T04:26:52;8.60;;;4.50;;
21060;SDS011;10689;50.836;3.266;2023-04-01T04:29:18;9.37;;;5.10;;
21060;SDS011;10689;50.836;3.266;2023-04-01T04:31:48;7.63;;;4.90;;
21060;SDS011;10689;50.836;3.266;2023-04-01T04:34:14;10.97;;;5.23;;
21060;SDS011;10689;50.836;3.266;2023-04-01T04:36:40;6.90;;;4.67;;
21060;SDS011;10689;50.836;3.266;2023-04-01T04:39:06;6.67;;;4.17;;
21060;SDS011;10689;50.836;3.266;2023-04-01T04:41:31;7.70;;;5.03;;
21060;SDS011;10689;50.836;3.266;2023-04-01T04:43:57;14.73;;;4.73;;
21060;SDS011;10689;50.836;3.266;2023-04-01T04:46:23;6.60;;;4.97;;
21060;SDS011;10689;50.836;3.266;2023-04-01T04:48:49;8.10;;;3.77;;
21060;SDS011;10689;50.836;3.266;2023-04-01T04:51:16;8.03;;;4.10;;
21060;SDS011;10689;50.836;3.266;2023-04-01T04:53:43;11.20;;;4.13;;
21060;SDS011;10689;50.836;3.266;2023-04-01T04:56:09;7.73;;;4.70;;
21060;SDS011;10689;50.836;3.266;2023-04-01T04:58:46;7.43;;;4.20;;
21060;SDS011;10689;50.836;3.266;2023-04-01T05:01:13;9.83;;;4.93;;
21060;SDS011;10689;50.836;3.266;2023-04-01T05:03:40;6.87;;;4.40;;
21060;SDS011;10689;50.836;3.266;2023-04-01T05:06:07;10.40;;;5.33;;
21060;SDS011;10689;50.836;3.266;2023-04-01T05:08:35;8.23;;;4.20;;
21060;SDS011;10689;50.836;3.266;2023-04-01T05:11:02;8.83;;;4.43;;
21060;SDS011;10689;50.836;3.266;2023-04-01T05:13:28;5.67;;;3.97;;
21060;SDS011;10689;50.836;3.266;2023-04-01T05:15:54;10.03;;;4.20;;
21060;SDS011;10689;50.836;3.266;2023-04-01T05:18:21;5.83;;;4.50;;
21060;SDS011;10689;50.836;3.266;2023-04-01T05:20:47;6.67;;;4.70;;
21060;SDS011;10689;50.836;3.266;2023-04-01T05:23:14;5.50;;;4.23;;
21060;SDS011;10689;50.836;3.266;2023-04-01T05:25:42;7.03;;;4.37;;
21060;SDS011;10689;50.836;3.266;2023-04-01T05:28:11;6.53;;;4.10;;
21060;SDS011;10689;50.836;3.266;2023-04-01T05:30:39;6.23;;;3.80;;
21060;SDS011;10689;50.836;3.266;2023-04-01T05:33:05;6.43;;;3.70;;
21060;SDS011;10689;50.836;3.266;2023-04-01T05:35:31;6.50;;;3.70;;
21060;SDS011;10689;50.836;3.266;2023-04-01T05:38:01;10.27;;;4.17;;
21060;SDS011;10689;50.836;3.266;2023-04-01T05:40:39;9.77;;;4.93;;
21060;SDS011;10689;50.836;3.266;2023-04-01T05:43:05;7.67;;;4.77;;
21060;SDS011;10689;50.836;3.266;2023-04-01T05:45:32;7.47;;;4.73;;
21060;SDS011;10689;50.836;3.266;2023-04-01T05:47:58;7.17;;;4.67;;
21060;SDS011;10689;50.836;3.266;2023-04-01T05:50:24;5.77;;;3.83;;
21060;SDS011;10689;50.836;3.266;2023-04-01T05:52:51;7.90;;;4.83;;
21060;SDS011;10689;50.836;3.266;2023-04-01T05:55:17;8.53;;;4.20;;
21060;SDS011;10689;50.836;3.266;2023-04-01T05:57:44;5.83;;;3.83;;
21060;SDS011;10689;50.836;3.266;2023-04-01T06:00:11;11.53;;;5.00;;
21060;SDS011;10689;50.836;3.266;2023-04-01T06:02:40;10.23;;;5.33;;
21060;SDS011;10689;50.836;3.266;2023-04-01T06:05:12;6.53;;;4.10;;
21060;SDS011;10689;50.836;3.266;2023-04-01T06:07:42;9.73;;;4.50;;
21060;SDS011;10689;50.836;3.266;2023-04-01T06:10:12;7.90;;;4.60;;
21060;SDS011;10689;50.836;3.266;2023-04-01T06:12:47;8.47;;;4.57;;
21060;SDS011;10689;50.836;3.266;2023-04-01T06:15:20;5.70;;;4.20;;
21060;SDS011;10689;50.836;3.266;2023-04-01T06:32:07;8.43;;;3.97;;
21060;SDS011;10689;50.836;3.266;2023-04-01T06:35:15;5.53;;;4.00;;
21060;SDS011;10689;50.836;3.266;2023-04-01T06:37:52;5.53;;;3.83;;
21060;SDS011;10689;50.836;3.266;2023-04-01T06:40:40;6.57;;;3.93;;
21060;SDS011;10689;50.836;3.266;2023-04-01T06:43:13;6.37;;;4.07;;
21060;SDS011;10689;50.836;3.266;2023-04-01T06:57:52;4.60;;;3.70;;
21060;SDS011;10689;50.836;3.266;2023-04-01T07:06:02;2.97;;;2.40;;
21060;SDS011;10689;50.836;3.266;2023-04-01T07:08:31;4.37;;;2.23;;
21060;SDS011;10689;50.836;3.266;2023-04-01T07:11:03;2.87;;;2.43;;
21060;SDS011;10689;50.836;3.266;2023-04-01T07:13:32;3.40;;;2.90;;
21060;SDS011;10689;50.836;3.266;2023-04-01T07:21:22;2.77;;;1.50;;
21060;SDS011;10689;50.836;3.266;2023-04-01T07:23:54;2.23;;;1.40;;
21060;SDS011;10689;50.836;3.266;2023-04-01T07:26:28;1.40;;;1.30;;
21060;SDS011;10689;50.836;3.266;2023-04-01T07:28:53;1.73;;;1.63;;
21060;SDS011;10689;50.836;3.266;2023-04-01T07:56:05;1.97;;;1.67;;
21060;SDS011;10689;50.836;3.266;2023-04-01T07:58:47;3.27;;;2.20;;
21060;SDS011;10689;50.836;3.266;2023-04-01T08:01:32;3.73;;;2.33;;
21060;SDS011;10689;50.836;3.266;2023-04-01T08:10:22;3.73;;;2.30;;
21060;SDS011;10689;50.836;3.266;2023-04-01T08:21:38;1.63;;;1.40;;
21060;SDS011;10689;50.836;3.266;2023-04-01T08:26:57;2.40;;;2.20;;
21060;SDS011;10689;50.836;3.266;2023-04-01T08:32:20;3.80;;;2.10;;
21060;SDS011;10689;50.836;3.266;2023-04-01T08:44:04;2.87;;;1.80;;
21060;SDS011;10689;50.836;3.266;2023-04-01T08:55:27;5.20;;;2.40;;
21060;SDS011;10689;50.836;3.266;2023-04-01T08:58:00;2.53;;;2.03;;
21060;SDS011;10689;50.836;3.266;2023-04-01T09:17:12;2.70;;;1.77;;
21060;SDS011;10689;50.836;3.266;2023-04-01T09:20:17;1.93;;;1.83;;
21060;SDS011;10689;50.836;3.266;2023-04-01T09:28:20;2.30;;;1.87;;
21060;SDS011;10689;50.836;3.266;2023-04-01T09:34:04;2.33;;;1.83;;
21060;SDS011;10689;50.836;3.266;2023-04-01T09:45:16;1.97;;;1.87;;
21060;SDS011;10689;50.836;3.266;2023-04-01T09:48:01;4.83;;;1.60;;
21060;SDS011;10689;50.836;3.266;2023-04-01T09:50:59;1.57;;;1.40;;
21060;SDS011;10689;50.836;3.266;2023-04-01T09:53:57;3.87;;;1.77;;
21060;SDS011;10689;50.836;3.266;2023-04-01T09:59:11;1.63;;;1.40;;
21060;SDS011;10689;50.836;3.266;2023-04-01T10:02:07;1.50;;;1.40;;
21060;SDS011;10689;50.836;3.266;2023-04-01T10:36:03;3.33;;;1.30;;
21060;SDS011;10689;50.836;3.266;2023-04-01T10:41:53;2.40;;;1.70;;
21060;SDS011;10689;50.836;3.266;2023-04-01T11:15:30;2.00;;;1.60;;
21060;SDS011;10689;50.836;3.266;2023-04-01T11:18:41;1.97;;;1.60;;
21060;SDS011;10689;50.836;3.266;2023-04-01T11:24:24;1.90;;;1.70;;
21060;SDS011;10689;50.836;3.266;2023-04-01T11:35:08;1.43;;;1.33;;
21060;SDS011;10689;50.836;3.266;2023-04-01T11:38:19;2.20;;;1.37;;
21060;SDS011;10689;50.836;3.266;2023-04-01T11:40:56;3.60;;;1.90;;
21060;SDS011;10689;50.836;3.266;2023-04-01T11:43:54;1.60;;;1.47;;
21060;SDS011;10689;50.836;3.266;2023-04-01T12:06:05;2.87;;;1.67;;
21060;SDS011;10689;50.836;3.266;2023-04-01T12:16:16;2.83;;;1.50;;
21060;SDS011;10689;50.836;3.266;2023-04-01T12:18:54;1.30;;;1.10;;
21060;SDS011;10689;50.836;3.266;2023-04-01T12:21:32;1.50;;;1.10;;
21060;SDS011;10689;50.836;3.266;2023-04-01T12:36:11;2.13;;;1.20;;
21060;SDS011;10689;50.836;3.266;2023-04-01T12:41:54;1.27;;;1.17;;
21060;SDS011;10689;50.836;3.266;2023-04-01T12:44:49;1.27;;;1.17;;
21060;SDS011;10689;50.836;3.266;2023-04-01T12:50:14;0.60;;;0.60;;
21060;SDS011;10689;50.836;3.266;2023-04-01T12:52:57;0.73;;;0.73;;
21060;SDS011;10689;50.836;3.266;2023-04-01T12:58:06;1.57;;;0.90;;
21060;SDS011;10689;50.836;3.266;2023-04-01T13:10:35;1.53;;;0.90;;
21060;SDS011;10689;50.836;3.266;2023-04-01T13:13:15;1.20;;;1.10;;
21060;SDS011;10689;50.836;3.266;2023-04-01T13:15:57;1.10;;;1.00;;
21060;SDS011;10689;50.836;3.266;2023-04-01T13:24:42;1.43;;;1.33;;
21060;SDS011;10689;50.836;3.266;2023-04-01T13:27:25;2.20;;;0.90;;
21060;SDS011;10689;50.836;3.266;2023-04-01T13:38:03;1.00;;;1.00;;
21060;SDS011;10689;50.836;3.266;2023-04-01T13:43:31;0.87;;;0.87;;
21060;SDS011;10689;50.836;3.266;2023-04-01T14:02:55;4.10;;;1.20;;
21060;SDS011;10689;50.836;3.266;2023-04-01T14:05:48;1.77;;;1.00;;
21060;SDS011;10689;50.836;3.266;2023-04-01T14:17:59;0.80;;;0.80;;
21060;SDS011;10689;50.836;3.266;2023-04-01T14:20:16;0.77;;;0.77;;
21060;SDS011;10689;50.836;3.266;2023-04-01T14:33:41;1.50;;;1.40;;
21060;SDS011;10689;50.836;3.266;2023-04-01T14:36:29;2.43;;;1.30;;
21060;SDS011;10689;50.836;3.266;2023-04-01T14:40:20;2.10;;;1.73;;
21060;SDS011;10689;50.836;3.266;2023-04-01T14:50:51;1.17;;;1.07;;
21060;SDS011;10689;50.836;3.266;2023-04-01T14:53:26;1.03;;;1.00;;
21060;SDS011;10689;50.836;3.266;2023-04-01T14:55:59;1.43;;;0.90;;
21060;SDS011;10689;50.836;3.266;2023-04-01T15:01:23;2.03;;;1.23;;
21060;SDS011;10689;50.836;3.266;2023-04-01T15:09:38;1.30;;;1.20;;
21060;SDS011;10689;50.836;3.266;2023-04-01T15:14:50;1.47;;;1.30;;
21060;SDS011;10689;50.836;3.266;2023-04-01T15:29:06;1.90;;;1.10;;
21060;SDS011;10689;50.836;3.266;2023-04-01T15:31:46;1.57;;;1.47;;
21060;SDS011;10689;50.836;3.266;2023-04-01T15:35:09;0.60;;;0.50;;
21060;SDS011;10689;50.836;3.266;2023-04-01T15:40:15;1.00;;;0.90;;
21060;SDS011;10689;50.836;3.266;2023-04-01T15:42:51;1.40;;;1.30;;
21060;SDS011;10689;50.836;3.266;2023-04-01T15:48:06;1.00;;;1.00;;
21060;SDS011;10689;50.836;3.266;2023-04-01T16:05:03;3.53;;;1.10;;
21060;SDS011;10689;50.836;3.266;2023-04-01T16:07:42;1.30;;;1.10;;
21060;SDS011;10689;50.836;3.266;2023-04-01T16:15:37;1.73;;;1.10;;
21060;SDS011;10689;50.836;3.266;2023-04-01T16:23:58;6.97;;;1.97;;
21060;SDS011;10689;50.836;3.266;2023-04-01T16:29:19;5.07;;;1.60;;
21060;SDS011;10689;50.836;3.266;2023-04-01T16:37:31;5.10;;;1.93;;
21060;SDS011;10689;50.836;3.266;2023-04-01T16:40:10;1.60;;;1.30;;
21060;SDS011;10689;50.836;3.266;2023-04-01T16:42:57;3.67;;;1.60;;
21060;SDS011;10689;50.836;3.266;2023-04-01T16:45:38;2.60;;;1.97;;
21060;SDS011;10689;50.836;3.266;2023-04-01T16:48:13;2.10;;;1.37;;
21060;SDS011;10689;50.836;3.266;2023-04-01T16:53:47;3.27;;;1.23;;
21060;SDS011;10689;50.836;3.266;2023-04-01T16:56:27;3.23;;;1.87;;
21060;SDS011;10689;50.836;3.266;2023-04-01T16:59:06;5.57;;;1.50;;
21060;SDS011;10689;50.836;3.266;2023-04-01T17:02:00;3.30;;;1.47;;
21060;SDS011;10689;50.836;3.266;2023-04-01T17:10:51;2.10;;;1.57;;
21060;SDS011;10689;50.836;3.266;2023-04-01T17:25:09;1.30;;;1.10;;
21060;SDS011;10689;50.836;3.266;2023-04-01T17:27:51;4.70;;;1.93;;
21060;SDS011;10689;50.836;3.266;2023-04-01T17:30:39;3.50;;;1.70;;
21060;SDS011;10689;50.836;3.266;2023-04-01T17:45:04;3.07;;;2.10;;
21060;SDS011;10689;50.836;3.266;2023-04-01T17:50:24;4.43;;;2.80;;
21060;SDS011;10689;50.836;3.266;2023-04-01T18:04:52;4.30;;;2.87;;
21060;SDS011;10689;50.836;3.266;2023-04-01T18:07:44;2.70;;;2.10;;
21060;SDS011;10689;50.836;3.266;2023-04-01T18:10:25;5.20;;;3.60;;
21060;SDS011;10689;50.836;3.266;2023-04-01T18:15:47;4.77;;;2.70;;
21060;SDS011;10689;50.836;3.266;2023-04-01T18:21:14;4.17;;;2.20;;
21060;SDS011;10689;50.836;3.266;2023-04-01T18:23:53;3.33;;;2.30;;
21060;SDS011;10689;50.836;3.266;2023-04-01T18:26:39;4.70;;;2.50;;
21060;SDS011;10689;50.836;3.266;2023-04-01T18:32:11;3.13;;;2.43;;
21060;SDS011;10689;50.836;3.266;2023-04-01T18:35:16;5.53;;;3.27;;
21060;SDS011;10689;50.836;3.266;2023-04-01T18:37:39;5.83;;;3.30;;
21060;SDS011;10689;50.836;3.266;2023-04-01T18:43:17;6.87;;;2.70;;
21060;SDS011;10689;50.836;3.266;2023-04-01T18:52:41;5.07;;;2.67;;
21060;SDS011;10689;50.836;3.266;2023-04-01T18:55:28;5.53;;;3.83;;
21060;SDS011;10689;50.836;3.266;2023-04-01T19:04:57;5.27;;;3.77;;
21060;SDS011;10689;50.836;3.266;2023-04-01T19:07:57;4.67;;;2.90;;
21060;SDS011;10689;50.836;3.266;2023-04-01T19:13:54;7.77;;;3.13;;
21060;SDS011;10689;50.836;3.266;2023-04-01T19:16:54;4.23;;;3.00;;
21060;SDS011;10689;50.836;3.266;2023-04-01T19:19:37;5.10;;;2.83;;
21060;SDS011;10689;50.836;3.266;2023-04-01T19:25:38;3.27;;;2.93;;
21060;SDS011;10689;50.836;3.266;2023-04-01T19:43:35;6.43;;;3.23;;
21060;SDS011;10689;50.836;3.266;2023-04-01T19:55:15;7.37;;;4.50;;
21060;SDS011;10689;50.836;3.266;2023-04-01T20:00:58;5.60;;;4.43;;
21060;SDS011;10689;50.836;3.266;2023-04-01T20:19:06;8.87;;;4.20;;
21060;SDS011;10689;50.836;3.266;2023-04-01T20:21:42;7.03;;;4.63;;
21060;SDS011;10689;50.836;3.266;2023-04-01T20:27:05;11.17;;;4.37;;
21060;SDS011;10689;50.836;3.266;2023-04-01T20:44:15;10.50;;;5.33;;
21060;SDS011;10689;50.836;3.266;2023-04-01T20:53:12;10.00;;;6.17;;
21060;SDS011;10689;50.836;3.266;2023-04-01T21:07:55;11.23;;;6.60;;
21060;SDS011;10689;50.836;3.266;2023-04-01T21:20:01;11.73;;;6.40;;
21060;SDS011;10689;50.836;3.266;2023-04-01T21:25:58;14.37;;;7.70;;
21060;SDS011;10689;50.836;3.266;2023-04-01T21:32:19;10.30;;;6.87;;
21060;SDS011;10689;50.836;3.266;2023-04-01T21:35:20;26.23;;;8.30;;
21060;SDS011;10689;50.836;3.266;2023-04-01T21:40:54;15.33;;;7.83;;
21060;SDS011;10689;50.836;3.266;2023-04-01T21:50:39;9.23;;;5.77;;
21060;SDS011;10689;50.836;3.266;2023-04-01T21:56:26;13.23;;;6.57;;
21060;SDS011;10689;50.836;3.266;2023-04-01T22:02:45;11.67;;;6.70;;
21060;SDS011;10689;50.836;3.266;2023-04-01T22:05:11;7.97;;;5.70;;
21060;SDS011;10689;50.836;3.266;2023-04-01T22:13:50;13.57;;;7.10;;
21060;SDS011;10689;50.836;3.266;2023-04-01T22:34:02;13.50;;;8.90;;
21060;SDS011;10689;50.836;3.266;2023-04-01T22:45:17;15.77;;;10.10;;
21060;SDS011;10689;50.836;3.266;2023-04-01T22:50:32;32.43;;;10.03;;
21060;SDS011;10689;50.836;3.266;2023-04-01T22:53:15;16.93;;;9.07;;
21060;SDS011;10689;50.836;3.266;2023-04-01T22:55:52;15.50;;;8.87;;
21060;SDS011;10689;50.836;3.266;2023-04-01T22:58:36;19.33;;;9.80;;
21060;SDS011;10689;50.836;3.266;2023-04-01T23:01:21;20.93;;;9.83;;
21060;SDS011;10689;50.836;3.266;2023-04-01T23:03:52;18.90;;;10.33;;
21060;SDS011;10689;50.836;3.266;2023-04-01T23:06:43;26.10;;;11.43;;
21060;SDS011;10689;50.836;3.266;2023-04-01T23:09:19;21.00;;;10.63;;
21060;SDS011;10689;50.836;3.266;2023-04-01T23:17:28;17.23;;;7.80;;
21060;SDS011;10689;50.836;3.266;2023-04-01T23:22:46;20.57;;;7.07;;
21060;SDS011;10689;50.836;3.266;2023-04-01T23:25:24;16.23;;;7.80;;
21060;SDS011;10689;50.836;3.266;2023-04-01T23:31:23;14.77;;;8.10;;
21060;SDS011;10689;50.836;3.266;2023-04-01T23:34:30;13.73;;;8.87;;
21060;SDS011;10689;50.836;3.266;2023-04-01T23:37:04;13.70;;;9.03;;
21060;SDS011;10689;50.836;3.266;2023-04-01T23:39:40;18.50;;;9.03;;
21060;SDS011;10689;50.836;3.266;2023-04-01T23:44:40;20.43;;;8.57;;
21060;SDS011;10689;50.836;3.266;2023-04-01T23:47:08;17.10;;;8.20;;
21060;SDS011;10689;50.836;3.266;2023-04-01T23:49:40;12.43;;;7.80;;
21060;SDS011;10689;50.836;3.266;2023-04-01T23:52:13;10.50;;;6.30;;
21060;SDS011;10689;50.836;3.266;2023-04-01T23:54:44;14.80;;;7.10;;
21060;SDS011;10689;50.836;3.266;2023-04-01T23:57:32;12.57;;;7.13;;
